PWSweather.com
Personal Weather Stations
Station Observations
BZA01
Southern Palatinate, Bad BergzabernDE 76887

Southern PalatinateBad BergzabernDE 76887

Lat: 49.096, Lon: 8

Elevation: 640

Station Type: Davis VP2+

Latest ConditionsUpdated 3:02:03 AM GMT+01:01 Monday, Feb 19, 2018
Currently Today's Max Today's Min Today's Average
Temperature 33.4°F0.8°C 33.4°F0.8°C 33.4°F0.8°C 33.4°F0.8°C
Dew Point 30.0°F-1.1°C 30.0°F-1.1°C 30.0°F-1.1°C 30.0°F-1.1°C
Winds 0.9 mph ENE1.4 kmh ENE 2.0 mph ENE3.2 kmh ENE - 0.9 mph 1.4 kmh
Wind Gusts 2.9 mph4.7 kmh 2.9 mph4.7 kmh - -
Humidity 87% 87% 87% 87%
Pressure 30.19 in1022.4 mb 30.25 in1024.4 mb 30.19 in1022.4 mb -
Hour Temp Dew Point Humidity Winds Wind Gusts Pressure Precip Precip Rate Daily Precip Total
03:02 AM 33.4°F0.8°C 30.0°F-1.1°C 87% 0.9 mph ENE1.4 kmh ENE 2.9 mph4.7 kmh 30.19 in1022.4 mb - 0.00 in0.0 mm 0.00 in0.0 mm
02:57 AM 33.4°F0.8°C 30.0°F-1.1°C 87% 0.9 mph ENE1.4 kmh ENE 0.9 mph1.4 kmh 30.20 in1022.7 mb - 0.00 in0.0 mm 0.00 in0.0 mm
02:52 AM 33.4°F0.8°C 30.0°F-1.1°C 87% 0.9 mph ENE1.4 kmh ENE -- 30.20 in1022.7 mb - 0.00 in0.0 mm 0.00 in0.0 mm
02:47 AM 33.4°F0.8°C 30.0°F-1.1°C 87% 0.9 mph ENE1.4 kmh ENE -- 30.20 in1022.7 mb - 0.00 in0.0 mm 0.00 in0.0 mm
02:42 AM 33.4°F0.8°C 30.0°F-1.1°C 87% 0.9 mph ENE1.4 kmh ENE 0.9 mph1.4 kmh 30.20 in1022.7 mb - 0.00 in0.0 mm 0.00 in0.0 mm
02:37 AM 33.4°F0.8°C 30.0°F-1.1°C 87% 0.9 mph ENE1.4 kmh ENE 0.9 mph1.4 kmh 30.20 in1022.7 mb - 0.00 in0.0 mm 0.00 in0.0 mm
02:32 AM 33.4°F0.8°C 30.0°F-1.1°C 87% 0.9 mph ENE1.4 kmh ENE 0.9 mph1.4 kmh 30.20 in1022.7 mb - 0.00 in0.0 mm 0.00 in0.0 mm
02:27 AM 33.4°F0.8°C 30.0°F-1.1°C 87% 0.9 mph ENE1.4 kmh ENE 0.9 mph1.4 kmh 30.21 in1023.0 mb - 0.00 in0.0 mm 0.00 in0.0 mm
02:22 AM 33.4°F0.8°C 30.0°F-1.1°C 87% 0.9 mph ENE1.4 kmh ENE -- 30.21 in1023.0 mb - 0.00 in0.0 mm 0.00 in0.0 mm
02:17 AM 33.4°F0.8°C 30.0°F-1.1°C 87% 0.9 mph ENE1.4 kmh ENE 0.9 mph1.4 kmh 30.21 in1023.0 mb - 0.00 in0.0 mm 0.00 in0.0 mm
02:12 AM 33.4°F0.8°C 30.0°F-1.1°C 87% 0.9 mph ENE1.4 kmh ENE 0.9 mph1.4 kmh 30.21 in1023.0 mb - 0.00 in0.0 mm 0.00 in0.0 mm
02:07 AM 33.4°F0.8°C 30.0°F-1.1°C 87% 0.9 mph ENE1.4 kmh ENE 2.9 mph4.7 kmh 30.22 in1023.4 mb - 0.00 in0.0 mm 0.00 in0.0 mm
02:02 AM 33.4°F0.8°C 30.0°F-1.1°C 87% 0.9 mph ENE1.4 kmh ENE 0.9 mph1.4 kmh 30.22 in1023.4 mb - 0.00 in0.0 mm 0.00 in0.0 mm
01:57 AM 33.4°F0.8°C 30.0°F-1.1°C 87% 0.9 mph ENE1.4 kmh ENE 0.9 mph1.4 kmh 30.22 in1023.4 mb - 0.00 in0.0 mm 0.00 in0.0 mm
01:52 AM 33.4°F0.8°C 30.0°F-1.1°C 87% 0.9 mph ENE1.4 kmh ENE -- 30.22 in1023.4 mb - 0.00 in0.0 mm 0.00 in0.0 mm
01:47 AM 33.4°F0.8°C 30.0°F-1.1°C 87% 0.9 mph ENE1.4 kmh ENE 0.9 mph1.4 kmh 30.22 in1023.4 mb - 0.00 in0.0 mm 0.00 in0.0 mm
01:42 AM 33.4°F0.8°C 30.0°F-1.1°C 87% Calm Calm 2.0 mph3.2 kmh 30.22 in1023.4 mb - 0.00 in0.0 mm 0.00 in0.0 mm
01:37 AM 33.4°F0.8°C 30.0°F-1.1°C 87% Calm Calm -- 30.22 in1023.4 mb - 0.00 in0.0 mm 0.00 in0.0 mm
01:32 AM 33.4°F0.8°C 30.0°F-1.1°C 87% Calm Calm -- 30.22 in1023.4 mb - 0.00 in0.0 mm 0.00 in0.0 mm
01:27 AM 33.4°F0.8°C 30.0°F-1.1°C 87% Calm Calm 0.9 mph1.4 kmh 30.22 in1023.4 mb - 0.00 in0.0 mm 0.00 in0.0 mm
01:22 AM 33.4°F0.8°C 30.0°F-1.1°C 87% 0.9 mph ENE1.4 kmh ENE -- 30.22 in1023.4 mb - 0.00 in0.0 mm 0.00 in0.0 mm
01:17 AM 33.4°F0.8°C 30.0°F-1.1°C 87% 0.9 mph ENE1.4 kmh ENE 0.9 mph1.4 kmh 30.23 in1023.7 mb - 0.00 in0.0 mm 0.00 in0.0 mm
01:12 AM 33.4°F0.8°C 30.0°F-1.1°C 87% 0.9 mph ENE1.4 kmh ENE 0.9 mph1.4 kmh 30.23 in1023.7 mb - 0.00 in0.0 mm 0.00 in0.0 mm
01:07 AM 33.4°F0.8°C 30.0°F-1.1°C 87% 0.9 mph ENE1.4 kmh ENE 0.9 mph1.4 kmh 30.24 in1024.0 mb - 0.00 in0.0 mm 0.00 in0.0 mm
01:02 AM 33.4°F0.8°C 30.0°F-1.1°C 87% 0.9 mph ENE1.4 kmh ENE -- 30.24 in1024.0 mb - 0.00 in0.0 mm 0.00 in0.0 mm
12:57 AM 33.4°F0.8°C 30.0°F-1.1°C 87% 0.9 mph ENE1.4 kmh ENE 2.9 mph4.7 kmh 30.24 in1024.0 mb - 0.00 in0.0 mm 0.00 in0.0 mm
12:52 AM 33.4°F0.8°C 30.0°F-1.1°C 87% 0.9 mph ENE1.4 kmh ENE 2.0 mph3.2 kmh 30.24 in1024.0 mb - 0.00 in0.0 mm 0.00 in0.0 mm
12:47 AM 33.4°F0.8°C 30.0°F-1.1°C 87% 0.9 mph ENE1.4 kmh ENE 0.9 mph1.4 kmh 30.24 in1024.0 mb - 0.00 in0.0 mm 0.00 in0.0 mm
12:42 AM 33.4°F0.8°C 30.0°F-1.1°C 87% 0.9 mph ENE1.4 kmh ENE 0.9 mph1.4 kmh 30.24 in1024.0 mb - 0.00 in0.0 mm 0.00 in0.0 mm
12:37 AM 33.4°F0.8°C 30.0°F-1.1°C 87% 0.9 mph ENE1.4 kmh ENE 0.9 mph1.4 kmh 30.24 in1024.0 mb - 0.00 in0.0 mm 0.00 in0.0 mm
12:32 AM 33.4°F0.8°C 30.0°F-1.1°C 87% Calm Calm -- 30.24 in1024.0 mb - 0.00 in0.0 mm 0.00 in0.0 mm
12:27 AM 33.4°F0.8°C 30.0°F-1.1°C 87% 0.9 mph ENE1.4 kmh ENE 2.0 mph3.2 kmh 30.24 in1024.0 mb - 0.00 in0.0 mm 0.00 in0.0 mm
12:22 AM 33.4°F0.8°C 30.0°F-1.1°C 87% 0.9 mph ENE1.4 kmh ENE -- 30.24 in1024.0 mb - 0.00 in0.0 mm 0.00 in0.0 mm
12:17 AM 33.4°F0.8°C 30.0°F-1.1°C 87% 2.0 mph ENE3.2 kmh ENE 2.0 mph3.2 kmh 30.25 in1024.4 mb - 0.00 in0.0 mm 0.00 in0.0 mm
12:12 AM 33.4°F0.8°C 30.0°F-1.1°C 87% 2.0 mph ENE3.2 kmh ENE 2.0 mph3.2 kmh 30.25 in1024.4 mb - 0.00 in0.0 mm 0.00 in0.0 mm
12:07 AM 33.4°F0.8°C 30.0°F-1.1°C 87% 2.0 mph ENE3.2 kmh ENE 0.9 mph1.4 kmh 30.25 in1024.4 mb - 0.00 in0.0 mm 0.00 in0.0 mm
12:02 AM 33.4°F0.8°C 30.0°F-1.1°C 87% 2.0 mph ENE3.2 kmh ENE 2.0 mph3.2 kmh 30.25 in1024.4 mb - 0.00 in0.0 mm 0.08 in2.0 mm